sensor_id;sensor_type;location;lat;lon;timestamp;P1;durP1;ratioP1;P2;durP2;ratioP2
13580;SDS011;6861;46.170;7.222;2024-03-23T00:56:00;4.03;;;2.42;;
13580;SDS011;6861;46.170;7.222;2024-03-23T00:58:26;4.55;;;2.30;;
13580;SDS011;6861;46.170;7.222;2024-03-23T01:00:53;4.28;;;2.30;;
13580;SDS011;6861;46.170;7.222;2024-03-23T01:03:19;6.75;;;2.42;;
13580;SDS011;6861;46.170;7.222;2024-03-23T01:05:46;7.32;;;1.80;;
13580;SDS011;6861;46.170;7.222;2024-03-23T01:08:14;4.20;;;1.80;;
13580;SDS011;6861;46.170;7.222;2024-03-23T01:10:41;3.22;;;2.00;;
13580;SDS011;6861;46.170;7.222;2024-03-23T01:13:08;3.90;;;2.25;;
13580;SDS011;6861;46.170;7.222;2024-03-23T01:15:35;3.35;;;1.80;;
13580;SDS011;6861;46.170;7.222;2024-03-23T01:18:18;4.97;;;1.98;;
13580;SDS011;6861;46.170;7.222;2024-03-23T01:31:27;2.90;;;1.90;;
13580;SDS011;6861;46.170;7.222;2024-03-23T01:33:54;4.35;;;1.92;;
13580;SDS011;6861;46.170;7.222;2024-03-23T01:36:20;4.22;;;1.85;;
13580;SDS011;6861;46.170;7.222;2024-03-23T01:38:47;3.47;;;2.00;;
13580;SDS011;6861;46.170;7.222;2024-03-23T01:41:13;3.50;;;1.90;;
13580;SDS011;6861;46.170;7.222;2024-03-23T01:43:40;3.58;;;2.03;;
13580;SDS011;6861;46.170;7.222;2024-03-23T01:46:06;1.90;;;1.70;;
13580;SDS011;6861;46.170;7.222;2024-03-23T01:48:35;5.32;;;2.00;;
13580;SDS011;6861;46.170;7.222;2024-03-23T01:51:02;3.60;;;2.42;;
13580;SDS011;6861;46.170;7.222;2024-03-23T01:53:30;3.22;;;2.00;;
13580;SDS011;6861;46.170;7.222;2024-03-23T01:55:56;4.50;;;2.15;;
13580;SDS011;6861;46.170;7.222;2024-03-23T01:58:23;5.25;;;2.10;;
13580;SDS011;6861;46.170;7.222;2024-03-23T02:00:49;3.45;;;2.15;;
13580;SDS011;6861;46.170;7.222;2024-03-23T02:03:23;2.65;;;2.20;;
13580;SDS011;6861;46.170;7.222;2024-03-23T02:05:51;3.20;;;2.15;;
13580;SDS011;6861;46.170;7.222;2024-03-23T02:08:20;2.30;;;1.80;;
13580;SDS011;6861;46.170;7.222;2024-03-23T02:10:47;3.72;;;2.00;;
13580;SDS011;6861;46.170;7.222;2024-03-23T02:13:16;2.20;;;1.90;;
13580;SDS011;6861;46.170;7.222;2024-03-23T02:19:37;3.42;;;2.05;;
13580;SDS011;6861;46.170;7.222;2024-03-23T02:29:04;5.57;;;2.00;;
13580;SDS011;6861;46.170;7.222;2024-03-23T02:31:30;3.83;;;2.03;;
13580;SDS011;6861;46.170;7.222;2024-03-23T02:37:39;2.22;;;1.73;;
13580;SDS011;6861;46.170;7.222;2024-03-23T02:40:06;4.05;;;2.22;;
13580;SDS011;6861;46.170;7.222;2024-03-23T02:42:33;3.55;;;2.08;;
13580;SDS011;6861;46.170;7.222;2024-03-23T02:45:01;4.03;;;2.15;;
13580;SDS011;6861;46.170;7.222;2024-03-23T02:47:30;2.85;;;1.90;;
13580;SDS011;6861;46.170;7.222;2024-03-23T02:49:57;3.20;;;1.80;;
13580;SDS011;6861;46.170;7.222;2024-03-23T02:52:23;3.10;;;2.08;;
13580;SDS011;6861;46.170;7.222;2024-03-23T02:54:50;3.20;;;1.98;;
13580;SDS011;6861;46.170;7.222;2024-03-23T02:57:17;2.95;;;2.00;;
13580;SDS011;6861;46.170;7.222;2024-03-23T02:59:44;3.65;;;1.95;;
13580;SDS011;6861;46.170;7.222;2024-03-23T03:02:12;3.33;;;2.10;;
13580;SDS011;6861;46.170;7.222;2024-03-23T03:04:40;2.85;;;1.88;;
13580;SDS011;6861;46.170;7.222;2024-03-23T03:07:06;5.45;;;2.10;;
13580;SDS011;6861;46.170;7.222;2024-03-23T03:09:33;3.05;;;1.58;;
13580;SDS011;6861;46.170;7.222;2024-03-23T03:12:01;4.75;;;1.77;;
13580;SDS011;6861;46.170;7.222;2024-03-23T03:14:28;3.90;;;2.05;;
13580;SDS011;6861;46.170;7.222;2024-03-23T03:16:54;2.60;;;1.88;;
13580;SDS011;6861;46.170;7.222;2024-03-23T03:19:23;7.90;;;2.33;;
13580;SDS011;6861;46.170;7.222;2024-03-23T03:21:49;3.78;;;2.00;;
13580;SDS011;6861;46.170;7.222;2024-03-23T03:24:16;4.07;;;2.50;;
13580;SDS011;6861;46.170;7.222;2024-03-23T03:26:43;5.03;;;2.45;;
13580;SDS011;6861;46.170;7.222;2024-03-23T03:29:10;2.50;;;1.98;;
13580;SDS011;6861;46.170;7.222;2024-03-23T03:31:37;4.32;;;2.00;;
13580;SDS011;6861;46.170;7.222;2024-03-23T03:34:04;4.45;;;2.10;;
13580;SDS011;6861;46.170;7.222;2024-03-23T03:36:32;4.10;;;2.30;;
13580;SDS011;6861;46.170;7.222;2024-03-23T03:38:59;4.30;;;2.20;;
13580;SDS011;6861;46.170;7.222;2024-03-23T03:41:25;2.40;;;1.70;;
13580;SDS011;6861;46.170;7.222;2024-03-23T03:43:53;3.53;;;2.10;;
13580;SDS011;6861;46.170;7.222;2024-03-23T03:46:19;3.55;;;2.10;;
13580;SDS011;6861;46.170;7.222;2024-03-23T03:48:46;3.40;;;2.10;;
13580;SDS011;6861;46.170;7.222;2024-03-23T03:51:13;3.83;;;2.03;;
13580;SDS011;6861;46.170;7.222;2024-03-23T03:53:43;2.15;;;1.50;;
13580;SDS011;6861;46.170;7.222;2024-03-23T03:56:09;4.07;;;1.70;;
13580;SDS011;6861;46.170;7.222;2024-03-23T03:58:36;5.30;;;2.03;;
13580;SDS011;6861;46.170;7.222;2024-03-23T04:01:02;3.58;;;1.88;;
13580;SDS011;6861;46.170;7.222;2024-03-23T04:03:29;4.70;;;2.13;;
13580;SDS011;6861;46.170;7.222;2024-03-23T04:05:55;4.82;;;1.92;;
13580;SDS011;6861;46.170;7.222;2024-03-23T04:08:23;6.43;;;2.13;;
13580;SDS011;6861;46.170;7.222;2024-03-23T04:10:51;3.92;;;2.25;;
13580;SDS011;6861;46.170;7.222;2024-03-23T04:13:18;3.17;;;1.83;;
13580;SDS011;6861;46.170;7.222;2024-03-23T04:15:44;5.03;;;2.00;;
13580;SDS011;6861;46.170;7.222;2024-03-23T04:18:11;4.78;;;1.80;;
13580;SDS011;6861;46.170;7.222;2024-03-23T04:20:37;3.78;;;1.80;;
13580;SDS011;6861;46.170;7.222;2024-03-23T04:23:04;2.40;;;1.80;;
13580;SDS011;6861;46.170;7.222;2024-03-23T04:25:31;3.88;;;1.92;;
13580;SDS011;6861;46.170;7.222;2024-03-23T04:27:59;3.80;;;1.90;;
13580;SDS011;6861;46.170;7.222;2024-03-23T04:30:26;2.33;;;1.83;;
13580;SDS011;6861;46.170;7.222;2024-03-23T04:32:54;6.43;;;1.95;;
13580;SDS011;6861;46.170;7.222;2024-03-23T04:35:22;3.30;;;2.10;;
13580;SDS011;6861;46.170;7.222;2024-03-23T04:37:50;3.63;;;2.30;;
13580;SDS011;6861;46.170;7.222;2024-03-23T04:40:19;3.85;;;2.10;;
13580;SDS011;6861;46.170;7.222;2024-03-23T04:45:47;2.58;;;1.70;;
13580;SDS011;6861;46.170;7.222;2024-03-23T04:48:14;3.78;;;2.03;;
13580;SDS011;6861;46.170;7.222;2024-03-23T04:50:41;5.20;;;1.90;;
13580;SDS011;6861;46.170;7.222;2024-03-23T04:53:08;4.00;;;2.00;;
13580;SDS011;6861;46.170;7.222;2024-03-23T04:55:35;2.45;;;1.58;;
13580;SDS011;6861;46.170;7.222;2024-03-23T04:58:03;4.30;;;1.80;;
13580;SDS011;6861;46.170;7.222;2024-03-23T05:00:30;3.20;;;1.90;;
13580;SDS011;6861;46.170;7.222;2024-03-23T05:02:58;7.57;;;1.80;;
13580;SDS011;6861;46.170;7.222;2024-03-23T05:05:24;4.72;;;1.70;;
13580;SDS011;6861;46.170;7.222;2024-03-23T05:07:51;4.50;;;1.65;;
13580;SDS011;6861;46.170;7.222;2024-03-23T05:10:17;5.45;;;1.75;;
13580;SDS011;6861;46.170;7.222;2024-03-23T05:12:44;2.95;;;1.98;;
13580;SDS011;6861;46.170;7.222;2024-03-23T05:15:11;3.50;;;2.17;;
13580;SDS011;6861;46.170;7.222;2024-03-23T05:17:39;2.33;;;2.00;;
13580;SDS011;6861;46.170;7.222;2024-03-23T05:20:05;6.65;;;2.10;;
13580;SDS011;6861;46.170;7.222;2024-03-23T05:22:35;3.63;;;1.63;;
13580;SDS011;6861;46.170;7.222;2024-03-23T05:25:01;4.45;;;1.90;;
13580;SDS011;6861;46.170;7.222;2024-03-23T05:27:30;2.88;;;1.77;;
13580;SDS011;6861;46.170;7.222;2024-03-23T05:29:57;3.33;;;2.10;;
13580;SDS011;6861;46.170;7.222;2024-03-23T05:32:24;5.30;;;2.15;;
13580;SDS011;6861;46.170;7.222;2024-03-23T05:34:52;4.72;;;2.20;;
13580;SDS011;6861;46.170;7.222;2024-03-23T05:37:22;4.05;;;2.10;;
13580;SDS011;6861;46.170;7.222;2024-03-23T05:39:48;3.25;;;2.03;;
13580;SDS011;6861;46.170;7.222;2024-03-23T05:42:16;4.28;;;2.03;;
13580;SDS011;6861;46.170;7.222;2024-03-23T05:44:43;6.05;;;2.20;;
13580;SDS011;6861;46.170;7.222;2024-03-23T05:47:10;2.95;;;2.03;;
13580;SDS011;6861;46.170;7.222;2024-03-23T05:49:38;5.22;;;2.38;;
13580;SDS011;6861;46.170;7.222;2024-03-23T05:52:08;6.43;;;2.50;;
13580;SDS011;6861;46.170;7.222;2024-03-23T05:54:34;3.80;;;2.70;;
13580;SDS011;6861;46.170;7.222;2024-03-23T05:57:01;6.50;;;2.60;;
13580;SDS011;6861;46.170;7.222;2024-03-23T05:59:27;8.40;;;4.53;;
13580;SDS011;6861;46.170;7.222;2024-03-23T06:01:55;5.15;;;2.97;;
13580;SDS011;6861;46.170;7.222;2024-03-23T06:04:21;5.05;;;2.42;;
13580;SDS011;6861;46.170;7.222;2024-03-23T06:06:48;8.35;;;3.75;;
13580;SDS011;6861;46.170;7.222;2024-03-23T06:09:15;8.95;;;3.45;;
13580;SDS011;6861;46.170;7.222;2024-03-23T06:11:42;3.80;;;2.40;;
13580;SDS011;6861;46.170;7.222;2024-03-23T06:14:08;3.75;;;2.22;;
13580;SDS011;6861;46.170;7.222;2024-03-23T06:16:36;5.20;;;2.50;;
13580;SDS011;6861;46.170;7.222;2024-03-23T06:19:02;4.47;;;2.30;;
13580;SDS011;6861;46.170;7.222;2024-03-23T06:21:32;5.45;;;2.50;;
13580;SDS011;6861;46.170;7.222;2024-03-23T06:23:58;3.72;;;2.20;;
13580;SDS011;6861;46.170;7.222;2024-03-23T06:26:26;5.10;;;2.88;;
13580;SDS011;6861;46.170;7.222;2024-03-23T06:28:53;4.70;;;2.50;;
13580;SDS011;6861;46.170;7.222;2024-03-23T06:31:21;6.13;;;2.60;;
13580;SDS011;6861;46.170;7.222;2024-03-23T06:33:47;5.05;;;2.67;;
13580;SDS011;6861;46.170;7.222;2024-03-23T06:36:14;4.00;;;2.50;;
13580;SDS011;6861;46.170;7.222;2024-03-23T06:38:40;4.13;;;2.70;;
13580;SDS011;6861;46.170;7.222;2024-03-23T06:41:08;5.80;;;2.90;;
13580;SDS011;6861;46.170;7.222;2024-03-23T06:43:35;2.88;;;2.10;;
13580;SDS011;6861;46.170;7.222;2024-03-23T06:46:03;3.45;;;2.72;;
13580;SDS011;6861;46.170;7.222;2024-03-23T06:48:29;2.72;;;1.67;;
13580;SDS011;6861;46.170;7.222;2024-03-23T06:50:57;4.03;;;1.75;;
13580;SDS011;6861;46.170;7.222;2024-03-23T06:53:23;2.47;;;1.75;;
13580;SDS011;6861;46.170;7.222;2024-03-23T06:55:50;2.90;;;2.03;;
13580;SDS011;6861;46.170;7.222;2024-03-23T06:58:18;3.17;;;1.88;;
13580;SDS011;6861;46.170;7.222;2024-03-23T07:00:47;2.88;;;1.67;;
13580;SDS011;6861;46.170;7.222;2024-03-23T07:03:14;5.47;;;1.92;;
13580;SDS011;6861;46.170;7.222;2024-03-23T07:05:41;3.17;;;1.98;;
13580;SDS011;6861;46.170;7.222;2024-03-23T07:08:07;3.53;;;2.80;;
13580;SDS011;6861;46.170;7.222;2024-03-23T07:10:35;7.38;;;5.03;;
13580;SDS011;6861;46.170;7.222;2024-03-23T07:13:04;3.75;;;2.40;;
13580;SDS011;6861;46.170;7.222;2024-03-23T07:15:32;3.42;;;2.20;;
13580;SDS011;6861;46.170;7.222;2024-03-23T07:17:59;10.13;;;7.25;;
13580;SDS011;6861;46.170;7.222;2024-03-23T07:20:26;3.53;;;1.90;;
13580;SDS011;6861;46.170;7.222;2024-03-23T07:22:53;4.72;;;2.53;;
13580;SDS011;6861;46.170;7.222;2024-03-23T07:25:20;4.55;;;2.03;;
13580;SDS011;6861;46.170;7.222;2024-03-23T07:27:47;3.25;;;2.15;;
13580;SDS011;6861;46.170;7.222;2024-03-23T07:30:14;4.55;;;2.60;;
13580;SDS011;6861;46.170;7.222;2024-03-23T07:32:40;2.08;;;1.88;;
13580;SDS011;6861;46.170;7.222;2024-03-23T07:35:08;4.63;;;2.25;;
13580;SDS011;6861;46.170;7.222;2024-03-23T07:37:34;6.40;;;2.45;;
13580;SDS011;6861;46.170;7.222;2024-03-23T07:40:02;3.65;;;2.40;;
13580;SDS011;6861;46.170;7.222;2024-03-23T07:42:29;6.47;;;2.45;;
13580;SDS011;6861;46.170;7.222;2024-03-23T07:44:56;4.60;;;2.47;;
13580;SDS011;6861;46.170;7.222;2024-03-23T07:47:22;4.43;;;2.53;;
13580;SDS011;6861;46.170;7.222;2024-03-23T07:49:49;6.07;;;2.45;;
13580;SDS011;6861;46.170;7.222;2024-03-23T07:52:17;4.75;;;2.30;;
13580;SDS011;6861;46.170;7.222;2024-03-23T07:54:44;2.80;;;2.10;;
13580;SDS011;6861;46.170;7.222;2024-03-23T07:57:10;3.63;;;2.30;;
13580;SDS011;6861;46.170;7.222;2024-03-23T07:59:37;6.07;;;2.40;;
13580;SDS011;6861;46.170;7.222;2024-03-23T08:02:03;3.58;;;2.22;;
13580;SDS011;6861;46.170;7.222;2024-03-23T08:04:31;3.60;;;2.22;;
13580;SDS011;6861;46.170;7.222;2024-03-23T08:06:57;4.65;;;2.75;;
13580;SDS011;6861;46.170;7.222;2024-03-23T08:09:26;5.85;;;2.47;;
13580;SDS011;6861;46.170;7.222;2024-03-23T08:11:52;4.15;;;2.50;;
13580;SDS011;6861;46.170;7.222;2024-03-23T08:14:19;3.08;;;2.10;;
13580;SDS011;6861;46.170;7.222;2024-03-23T08:16:45;3.75;;;2.70;;
13580;SDS011;6861;46.170;7.222;2024-03-23T08:19:14;2.97;;;2.33;;
13580;SDS011;6861;46.170;7.222;2024-03-23T08:21:40;5.13;;;1.98;;
13580;SDS011;6861;46.170;7.222;2024-03-23T08:24:08;3.53;;;2.13;;
13580;SDS011;6861;46.170;7.222;2024-03-23T08:26:35;2.90;;;2.35;;
13580;SDS011;6861;46.170;7.222;2024-03-23T08:29:03;2.67;;;2.22;;
13580;SDS011;6861;46.170;7.222;2024-03-23T08:31:30;3.33;;;2.30;;
13580;SDS011;6861;46.170;7.222;2024-03-23T08:33:57;4.45;;;2.72;;
13580;SDS011;6861;46.170;7.222;2024-03-23T08:36:23;3.65;;;2.55;;
13580;SDS011;6861;46.170;7.222;2024-03-23T08:38:50;2.72;;;2.30;;
13580;SDS011;6861;46.170;7.222;2024-03-23T08:41:19;2.80;;;2.10;;
13580;SDS011;6861;46.170;7.222;2024-03-23T08:43:47;3.78;;;1.95;;
13580;SDS011;6861;46.170;7.222;2024-03-23T08:46:13;4.53;;;2.22;;
13580;SDS011;6861;46.170;7.222;2024-03-23T08:48:43;4.53;;;2.40;;
13580;SDS011;6861;46.170;7.222;2024-03-23T08:51:11;2.75;;;2.33;;
13580;SDS011;6861;46.170;7.222;2024-03-23T08:53:39;2.78;;;2.05;;
13580;SDS011;6861;46.170;7.222;2024-03-23T08:56:07;3.50;;;2.30;;
13580;SDS011;6861;46.170;7.222;2024-03-23T08:58:35;4.00;;;1.70;;
13580;SDS011;6861;46.170;7.222;2024-03-23T09:01:04;3.70;;;2.17;;
13580;SDS011;6861;46.170;7.222;2024-03-23T09:03:33;4.80;;;2.40;;
13580;SDS011;6861;46.170;7.222;2024-03-23T09:06:00;2.58;;;1.70;;
13580;SDS011;6861;46.170;7.222;2024-03-23T09:08:28;3.25;;;1.90;;
13580;SDS011;6861;46.170;7.222;2024-03-23T09:10:54;3.03;;;2.10;;
13580;SDS011;6861;46.170;7.222;2024-03-23T09:13:21;2.50;;;1.75;;
13580;SDS011;6861;46.170;7.222;2024-03-23T09:15:47;2.30;;;1.77;;
13580;SDS011;6861;46.170;7.222;2024-03-23T09:18:17;2.08;;;1.75;;
13580;SDS011;6861;46.170;7.222;2024-03-23T09:20:43;2.65;;;1.58;;
13580;SDS011;6861;46.170;7.222;2024-03-23T09:23:10;1.83;;;1.45;;
13580;SDS011;6861;46.170;7.222;2024-03-23T09:25:37;1.88;;;1.48;;
13580;SDS011;6861;46.170;7.222;2024-03-23T09:28:05;2.83;;;1.73;;
13580;SDS011;6861;46.170;7.222;2024-03-23T09:30:32;2.97;;;1.50;;
13580;SDS011;6861;46.170;7.222;2024-03-23T09:33:00;1.50;;;1.40;;
13580;SDS011;6861;46.170;7.222;2024-03-23T09:35:28;3.10;;;1.50;;
13580;SDS011;6861;46.170;7.222;2024-03-23T09:37:55;1.98;;;1.20;;
13580;SDS011;6861;46.170;7.222;2024-03-23T09:40:22;2.60;;;1.30;;
13580;SDS011;6861;46.170;7.222;2024-03-23T09:42:49;1.33;;;1.20;;
13580;SDS011;6861;46.170;7.222;2024-03-23T09:45:17;1.25;;;0.90;;
13580;SDS011;6861;46.170;7.222;2024-03-23T09:47:48;1.40;;;1.05;;
13580;SDS011;6861;46.170;7.222;2024-03-23T09:50:16;1.48;;;1.02;;
13580;SDS011;6861;46.170;7.222;2024-03-23T09:52:44;2.83;;;1.40;;
13580;SDS011;6861;46.170;7.222;2024-03-23T09:55:11;1.65;;;1.10;;
13580;SDS011;6861;46.170;7.222;2024-03-23T09:57:39;1.20;;;1.00;;
13580;SDS011;6861;46.170;7.222;2024-03-23T10:00:06;1.90;;;1.25;;
13580;SDS011;6861;46.170;7.222;2024-03-23T10:02:34;0.80;;;0.73;;
13580;SDS011;6861;46.170;7.222;2024-03-23T10:05:01;1.80;;;0.93;;
13580;SDS011;6861;46.170;7.222;2024-03-23T10:07:29;1.70;;;0.93;;
13580;SDS011;6861;46.170;7.222;2024-03-23T10:09:57;0.98;;;0.70;;
13580;SDS011;6861;46.170;7.222;2024-03-23T10:12:24;1.88;;;1.00;;
13580;SDS011;6861;46.170;7.222;2024-03-23T10:14:50;2.92;;;1.08;;
13580;SDS011;6861;46.170;7.222;2024-03-23T10:17:18;0.80;;;0.80;;
13580;SDS011;6861;46.170;7.222;2024-03-23T10:19:47;4.28;;;1.00;;
13580;SDS011;6861;46.170;7.222;2024-03-23T10:22:18;1.15;;;0.80;;
13580;SDS011;6861;46.170;7.222;2024-03-23T10:24:45;2.45;;;1.05;;
13580;SDS011;6861;46.170;7.222;2024-03-23T10:27:16;2.47;;;1.00;;
13580;SDS011;6861;46.170;7.222;2024-03-23T10:29:44;1.10;;;0.93;;
13580;SDS011;6861;46.170;7.222;2024-03-23T10:32:12;1.25;;;0.77;;
13580;SDS011;6861;46.170;7.222;2024-03-23T10:34:39;1.10;;;0.90;;
13580;SDS011;6861;46.170;7.222;2024-03-23T10:37:07;1.45;;;1.00;;
13580;SDS011;6861;46.170;7.222;2024-03-23T10:39:34;3.38;;;1.00;;
13580;SDS011;6861;46.170;7.222;2024-03-23T10:42:03;4.25;;;1.20;;
13580;SDS011;6861;46.170;7.222;2024-03-23T10:44:37;1.92;;;1.45;;
13580;SDS011;6861;46.170;7.222;2024-03-23T10:47:04;2.28;;;1.30;;
13580;SDS011;6861;46.170;7.222;2024-03-23T10:49:31;1.70;;;1.05;;
13580;SDS011;6861;46.170;7.222;2024-03-23T10:52:00;0.93;;;0.80;;
13580;SDS011;6861;46.170;7.222;2024-03-23T10:54:28;4.88;;;1.38;;
13580;SDS011;6861;46.170;7.222;2024-03-23T10:56:58;2.05;;;1.40;;
13580;SDS011;6861;46.170;7.222;2024-03-23T10:59:39;2.33;;;0.80;;
13580;SDS011;6861;46.170;7.222;2024-03-23T11:02:08;3.33;;;1.40;;
13580;SDS011;6861;46.170;7.222;2024-03-23T11:04:45;2.70;;;1.17;;
13580;SDS011;6861;46.170;7.222;2024-03-23T11:07:29;1.63;;;1.00;;
13580;SDS011;6861;46.170;7.222;2024-03-23T11:09:57;1.17;;;0.77;;
13580;SDS011;6861;46.170;7.222;2024-03-23T11:12:28;1.55;;;1.00;;
13580;SDS011;6861;46.170;7.222;2024-03-23T11:15:00;0.88;;;0.50;;
13580;SDS011;6861;46.170;7.222;2024-03-23T11:17:28;2.30;;;0.80;;
13580;SDS011;6861;46.170;7.222;2024-03-23T11:19:56;1.67;;;0.60;;
13580;SDS011;6861;46.170;7.222;2024-03-23T11:22:40;1.50;;;0.90;;
13580;SDS011;6861;46.170;7.222;2024-03-23T11:25:15;0.65;;;0.57;;
13580;SDS011;6861;46.170;7.222;2024-03-23T11:27:43;1.00;;;0.60;;
13580;SDS011;6861;46.170;7.222;2024-03-23T11:30:17;1.48;;;0.52;;
13580;SDS011;6861;46.170;7.222;2024-03-23T11:32:44;0.75;;;0.50;;
13580;SDS011;6861;46.170;7.222;2024-03-23T11:35:28;0.77;;;0.68;;
13580;SDS011;6861;46.170;7.222;2024-03-23T11:38:03;0.60;;;0.40;;
13580;SDS011;6861;46.170;7.222;2024-03-23T11:40:34;1.20;;;0.60;;
13580;SDS011;6861;46.170;7.222;2024-03-23T11:43:01;1.10;;;0.70;;
13580;SDS011;6861;46.170;7.222;2024-03-23T11:45:35;2.63;;;0.90;;
13580;SDS011;6861;46.170;7.222;2024-03-23T11:48:05;1.80;;;1.02;;
13580;SDS011;6861;46.170;7.222;2024-03-23T11:50:34;1.15;;;0.60;;
13580;SDS011;6861;46.170;7.222;2024-03-23T11:53:09;1.23;;;0.52;;
13580;SDS011;6861;46.170;7.222;2024-03-23T11:55:39;0.77;;;0.60;;
13580;SDS011;6861;46.170;7.222;2024-03-23T11:58:06;2.35;;;0.88;;
13580;SDS011;6861;46.170;7.222;2024-03-23T12:00:35;0.70;;;0.40;;
13580;SDS011;6861;46.170;7.222;2024-03-23T12:03:01;1.48;;;0.80;;
13580;SDS011;6861;46.170;7.222;2024-03-23T12:05:29;1.75;;;0.77;;
13580;SDS011;6861;46.170;7.222;2024-03-23T12:07:55;1.27;;;0.60;;
13580;SDS011;6861;46.170;7.222;2024-03-23T12:10:22;1.63;;;0.90;;
13580;SDS011;6861;46.170;7.222;2024-03-23T12:12:59;0.77;;;0.52;;
13580;SDS011;6861;46.170;7.222;2024-03-23T12:15:27;1.90;;;0.70;;
13580;SDS011;6861;46.170;7.222;2024-03-23T12:18:07;1.45;;;0.60;;
13580;SDS011;6861;46.170;7.222;2024-03-23T12:20:34;1.17;;;0.80;;
13580;SDS011;6861;46.170;7.222;2024-03-23T12:23:07;1.95;;;0.60;;
13580;SDS011;6861;46.170;7.222;2024-03-23T12:25:35;1.73;;;0.73;;
13580;SDS011;6861;46.170;7.222;2024-03-23T12:28:02;2.75;;;0.77;;
13580;SDS011;6861;46.170;7.222;2024-03-23T12:30:31;1.70;;;0.70;;
13580;SDS011;6861;46.170;7.222;2024-03-23T12:32:59;4.05;;;0.80;;
13580;SDS011;6861;46.170;7.222;2024-03-23T12:35:28;1.75;;;0.68;;
13580;SDS011;6861;46.170;7.222;2024-03-23T12:37:55;1.58;;;0.63;;
13580;SDS011;6861;46.170;7.222;2024-03-23T12:40:24;1.88;;;0.75;;
13580;SDS011;6861;46.170;7.222;2024-03-23T12:42:53;2.50;;;0.50;;
13580;SDS011;6861;46.170;7.222;2024-03-23T12:45:22;1.27;;;0.70;;
13580;SDS011;6861;46.170;7.222;2024-03-23T12:47:49;4.50;;;1.00;;
13580;SDS011;6861;46.170;7.222;2024-03-23T12:50:18;1.90;;;0.65;;
13580;SDS011;6861;46.170;7.222;2024-03-23T12:52:45;2.00;;;0.85;;
13580;SDS011;6861;46.170;7.222;2024-03-23T12:55:13;2.53;;;0.75;;
13580;SDS011;6861;46.170;7.222;2024-03-23T12:57:39;1.20;;;0.90;;
13580;SDS011;6861;46.170;7.222;2024-03-23T13:00:07;2.55;;;0.80;;
13580;SDS011;6861;46.170;7.222;2024-03-23T13:02:36;1.70;;;0.80;;
13580;SDS011;6861;46.170;7.222;2024-03-23T13:05:04;1.92;;;0.60;;
13580;SDS011;6861;46.170;7.222;2024-03-23T13:07:31;4.47;;;1.20;;
13580;SDS011;6861;46.170;7.222;2024-03-23T13:10:00;2.38;;;0.90;;
13580;SDS011;6861;46.170;7.222;2024-03-23T13:12:27;1.25;;;0.68;;
13580;SDS011;6861;46.170;7.222;2024-03-23T13:14:54;2.10;;;0.88;;
13580;SDS011;6861;46.170;7.222;2024-03-23T13:17:20;2.40;;;0.70;;
13580;SDS011;6861;46.170;7.222;2024-03-23T13:19:47;1.40;;;0.73;;
13580;SDS011;6861;46.170;7.222;2024-03-23T13:22:14;2.13;;;0.60;;
13580;SDS011;6861;46.170;7.222;2024-03-23T13:24:41;1.67;;;0.70;;
13580;SDS011;6861;46.170;7.222;2024-03-23T13:27:09;0.82;;;0.60;;
13580;SDS011;6861;46.170;7.222;2024-03-23T13:29:36;1.50;;;0.85;;
13580;SDS011;6861;46.170;7.222;2024-03-23T13:32:03;1.38;;;0.80;;
13580;SDS011;6861;46.170;7.222;2024-03-23T13:34:31;2.67;;;0.70;;
13580;SDS011;6861;46.170;7.222;2024-03-23T13:36:58;1.70;;;0.80;;
13580;SDS011;6861;46.170;7.222;2024-03-23T13:39:26;3.10;;;0.80;;
13580;SDS011;6861;46.170;7.222;2024-03-23T13:41:53;2.65;;;0.70;;
13580;SDS011;6861;46.170;7.222;2024-03-23T13:44:22;3.00;;;0.77;;
13580;SDS011;6861;46.170;7.222;2024-03-23T13:46:49;1.42;;;0.60;;
13580;SDS011;6861;46.170;7.222;2024-03-23T13:49:26;2.65;;;0.70;;
13580;SDS011;6861;46.170;7.222;2024-03-23T13:51:53;1.10;;;0.73;;
13580;SDS011;6861;46.170;7.222;2024-03-23T13:54:21;2.47;;;1.00;;
13580;SDS011;6861;46.170;7.222;2024-03-23T13:56:48;2.92;;;1.05;;
13580;SDS011;6861;46.170;7.222;2024-03-23T13:59:15;1.23;;;0.70;;
13580;SDS011;6861;46.170;7.222;2024-03-23T14:01:44;2.45;;;1.38;;
13580;SDS011;6861;46.170;7.222;2024-03-23T14:04:11;1.67;;;0.75;;
13580;SDS011;6861;46.170;7.222;2024-03-23T14:06:37;2.50;;;0.60;;
13580;SDS011;6861;46.170;7.222;2024-03-23T14:09:05;3.55;;;0.70;;
13580;SDS011;6861;46.170;7.222;2024-03-23T14:11:34;1.98;;;0.70;;
13580;SDS011;6861;46.170;7.222;2024-03-23T14:14:02;1.33;;;0.70;;
13580;SDS011;6861;46.170;7.222;2024-03-23T14:16:28;2.47;;;0.90;;
13580;SDS011;6861;46.170;7.222;2024-03-23T14:18:57;1.17;;;0.50;;
13580;SDS011;6861;46.170;7.222;2024-03-23T14:21:23;1.98;;;0.65;;
13580;SDS011;6861;46.170;7.222;2024-03-23T14:23:51;1.63;;;0.80;;
13580;SDS011;6861;46.170;7.222;2024-03-23T14:26:17;2.10;;;0.80;;
13580;SDS011;6861;46.170;7.222;2024-03-23T14:28:45;1.70;;;0.80;;
13580;SDS011;6861;46.170;7.222;2024-03-23T14:31:12;1.02;;;0.63;;
13580;SDS011;6861;46.170;7.222;2024-03-23T14:33:39;2.10;;;0.77;;
13580;SDS011;6861;46.170;7.222;2024-03-23T14:36:12;0.93;;;0.65;;
13580;SDS011;6861;46.170;7.222;2024-03-23T14:38:40;0.60;;;0.52;;
13580;SDS011;6861;46.170;7.222;2024-03-23T14:41:06;3.53;;;0.70;;
13580;SDS011;6861;46.170;7.222;2024-03-23T14:43:33;4.88;;;0.93;;
13580;SDS011;6861;46.170;7.222;2024-03-23T14:46:06;2.50;;;0.70;;
13580;SDS011;6861;46.170;7.222;2024-03-23T14:48:34;2.05;;;0.77;;
13580;SDS011;6861;46.170;7.222;2024-03-23T14:51:01;1.80;;;0.70;;
13580;SDS011;6861;46.170;7.222;2024-03-23T14:53:32;2.05;;;0.80;;
13580;SDS011;6861;46.170;7.222;2024-03-23T14:55:59;2.45;;;0.80;;
13580;SDS011;6861;46.170;7.222;2024-03-23T14:58:26;1.58;;;0.70;;
13580;SDS011;6861;46.170;7.222;2024-03-23T15:00:57;2.42;;;0.77;;
13580;SDS011;6861;46.170;7.222;2024-03-23T15:03:27;1.73;;;0.80;;
13580;SDS011;6861;46.170;7.222;2024-03-23T15:05:53;2.13;;;0.90;;
13580;SDS011;6861;46.170;7.222;2024-03-23T15:08:21;2.47;;;0.60;;
13580;SDS011;6861;46.170;7.222;2024-03-23T15:10:49;3.17;;;0.85;;
13580;SDS011;6861;46.170;7.222;2024-03-23T15:13:17;3.03;;;0.70;;
13580;SDS011;6861;46.170;7.222;2024-03-23T15:15:43;1.23;;;0.50;;
13580;SDS011;6861;46.170;7.222;2024-03-23T15:18:11;1.27;;;0.70;;
13580;SDS011;6861;46.170;7.222;2024-03-23T15:20:38;1.25;;;0.63;;
13580;SDS011;6861;46.170;7.222;2024-03-23T15:23:05;1.75;;;0.70;;
13580;SDS011;6861;46.170;7.222;2024-03-23T15:25:31;3.42;;;0.98;;
13580;SDS011;6861;46.170;7.222;2024-03-23T15:28:00;1.77;;;0.80;;
13580;SDS011;6861;46.170;7.222;2024-03-23T15:30:27;2.65;;;0.70;;
13580;SDS011;6861;46.170;7.222;2024-03-23T15:32:55;2.28;;;0.68;;
13580;SDS011;6861;46.170;7.222;2024-03-23T15:35:21;5.40;;;0.90;;
13580;SDS011;6861;46.170;7.222;2024-03-23T15:37:49;2.63;;;0.93;;
13580;SDS011;6861;46.170;7.222;2024-03-23T15:40:15;3.17;;;0.80;;
13580;SDS011;6861;46.170;7.222;2024-03-23T15:42:43;2.97;;;1.30;;
13580;SDS011;6861;46.170;7.222;2024-03-23T15:45:10;1.70;;;0.70;;
13580;SDS011;6861;46.170;7.222;2024-03-23T15:47:38;4.47;;;1.10;;
13580;SDS011;6861;46.170;7.222;2024-03-23T15:50:04;2.13;;;0.75;;
13580;SDS011;6861;46.170;7.222;2024-03-23T15:52:34;3.55;;;1.27;;
13580;SDS011;6861;46.170;7.222;2024-03-23T15:55:02;4.45;;;0.88;;
13580;SDS011;6861;46.170;7.222;2024-03-23T15:57:32;2.70;;;0.88;;
13580;SDS011;6861;46.170;7.222;2024-03-23T15:59:59;1.58;;;0.85;;
13580;SDS011;6861;46.170;7.222;2024-03-23T16:02:27;2.78;;;0.80;;
13580;SDS011;6861;46.170;7.222;2024-03-23T16:04:54;2.35;;;0.80;;
13580;SDS011;6861;46.170;7.222;2024-03-23T16:07:23;2.90;;;0.85;;
13580;SDS011;6861;46.170;7.222;2024-03-23T16:09:49;2.05;;;0.77;;
13580;SDS011;6861;46.170;7.222;2024-03-23T16:12:17;2.70;;;0.90;;
13580;SDS011;6861;46.170;7.222;2024-03-23T16:14:43;2.40;;;1.02;;
13580;SDS011;6861;46.170;7.222;2024-03-23T16:17:10;2.80;;;1.52;;
13580;SDS011;6861;46.170;7.222;2024-03-23T16:19:38;3.13;;;1.08;;
13580;SDS011;6861;46.170;7.222;2024-03-23T16:22:05;2.17;;;1.13;;
13580;SDS011;6861;46.170;7.222;2024-03-23T16:24:31;1.73;;;0.80;;
13580;SDS011;6861;46.170;7.222;2024-03-23T16:26:59;2.22;;;0.80;;